Startpagina
METAR-TAF:

METAR-TAF

Vliegvelden :

Bahrein, Bahrein

Internationale luchthaven van Bahrein

breedte: 26-16N, lengte: 050-39E, hoogte: 2 m

Actueel weer

Dit bericht is 16 minuten geleden gemaakt, om 08:30 UTC
Wind 14 kt uit het westnoordwesten
Temperatuur 40°C
Vochtigheid 17%
Druk 997 hPa
Zicht 10 km of meer
geen wolken onder 1500 m en geen cumulonimbus

METAR: OBBI 280830Z 30014KT CAVOK 40/10 Q0997 NOSIG

Tijdstip: 11:46 (08:46 UTC)

Verwachting

Dit bericht is 3 uur en het 46 minuten geleden gemaakt, om 05:00 UTC
Verwachting geldig van 28 om 06 UTC tot 29 om 12 UTC
Wind 12 kt uit het noorden
Zicht 10 km of meer
geen wolken onder 1500 m en geen cumulonimbus
Wijzigt naar
van 28 om 16 UTC tot 28 om 18 UTC
Wind 5 kt uit variabele richting
Kans 30% :
Tijdelijke
van 29 om 01 UTC tot 29 om 05 UTC
Zicht: 5000 m
Heiigheid

TAF: OBBI 280500Z 2806/2912 35012KT CAVOK BECMG 2816/2818 VRB05KT PROB30 TEMPO 2901/2905 5000 HZ NSC

Waarnemingen en weersverwachtingen van meer dan 4000 vliegvelden (METAR en TAF).

De beschikbare stations zijn de gele en rode punten op de kaart.

Ga met uw muis naar het station om de naam te zien.

Klik dan om waarnemingen en weersverwachtingen te zien.

kaart wijzigen: klik op de groene knoppen met een zwart kruis om in te zoomen, op de groene knop met een streepje om uit te zoomen of op de groene pijlen voor aangrenzende kaarten.


METAR-TAF: